sensor_id;sensor_type;location;lat;lon;timestamp;P1;durP1;ratioP1;P2;durP2;ratioP2
15516;SDS011;7860;52.030;5.572;2023-07-13T00:03:48;12.09;;;2.64;;
15516;SDS011;7860;52.030;5.572;2023-07-13T00:03:48;7.17;;;1.87;;
15516;SDS011;7860;52.030;5.572;2023-07-13T00:03:53;6.41;;;2.18;;
15516;SDS011;7860;52.030;5.572;2023-07-13T00:04:53;8.41;;;2.41;;
15516;SDS011;7860;52.030;5.572;2023-07-13T00:05:57;9.28;;;2.46;;
15516;SDS011;7860;52.030;5.572;2023-07-13T00:06:53;9.02;;;2.38;;
15516;SDS011;7860;52.030;5.572;2023-07-13T00:07:53;8.50;;;2.41;;
15516;SDS011;7860;52.030;5.572;2023-07-13T00:08:53;8.44;;;2.37;;
15516;SDS011;7860;52.030;5.572;2023-07-13T00:09:53;8.89;;;2.05;;
15516;SDS011;7860;52.030;5.572;2023-07-13T00:10:53;7.53;;;2.11;;
15516;SDS011;7860;52.030;5.572;2023-07-13T00:11:55;8.39;;;2.50;;
15516;SDS011;7860;52.030;5.572;2023-07-13T00:12:54;11.19;;;2.34;;
15516;SDS011;7860;52.030;5.572;2023-07-13T00:13:54;8.52;;;2.48;;
15516;SDS011;7860;52.030;5.572;2023-07-13T00:14:55;10.74;;;2.53;;
15516;SDS011;7860;52.030;5.572;2023-07-13T00:15:55;8.74;;;2.41;;
15516;SDS011;7860;52.030;5.572;2023-07-13T00:16:55;9.39;;;2.37;;
15516;SDS011;7860;52.030;5.572;2023-07-13T00:17:55;9.67;;;2.41;;
15516;SDS011;7860;52.030;5.572;2023-07-13T00:18:55;7.77;;;2.43;;
15516;SDS011;7860;52.030;5.572;2023-07-13T00:19:55;8.37;;;2.08;;
15516;SDS011;7860;52.030;5.572;2023-07-13T00:20:55;8.08;;;1.90;;
15516;SDS011;7860;52.030;5.572;2023-07-13T00:21:55;7.32;;;2.16;;
15516;SDS011;7860;52.030;5.572;2023-07-13T00:22:55;8.29;;;2.03;;
15516;SDS011;7860;52.030;5.572;2023-07-13T00:23:55;9.67;;;2.51;;
15516;SDS011;7860;52.030;5.572;2023-07-13T00:24:55;6.15;;;2.13;;
15516;SDS011;7860;52.030;5.572;2023-07-13T00:25:55;11.51;;;2.27;;
15516;SDS011;7860;52.030;5.572;2023-07-13T00:26:55;8.67;;;2.23;;
15516;SDS011;7860;52.030;5.572;2023-07-13T00:27:55;8.34;;;2.24;;
15516;SDS011;7860;52.030;5.572;2023-07-13T00:28:55;7.39;;;2.32;;
15516;SDS011;7860;52.030;5.572;2023-07-13T00:29:55;7.70;;;2.10;;
15516;SDS011;7860;52.030;5.572;2023-07-13T00:30:56;6.45;;;2.20;;
15516;SDS011;7860;52.030;5.572;2023-07-13T00:31:56;9.56;;;2.13;;
15516;SDS011;7860;52.030;5.572;2023-07-13T00:32:56;7.46;;;2.04;;
15516;SDS011;7860;52.030;5.572;2023-07-13T00:33:56;8.27;;;2.32;;
15516;SDS011;7860;52.030;5.572;2023-07-13T00:34:57;7.59;;;2.38;;
15516;SDS011;7860;52.030;5.572;2023-07-13T00:35:56;8.58;;;2.49;;
15516;SDS011;7860;52.030;5.572;2023-07-13T00:36:56;7.02;;;2.22;;
15516;SDS011;7860;52.030;5.572;2023-07-13T00:37:56;6.16;;;2.27;;
15516;SDS011;7860;52.030;5.572;2023-07-13T00:38:56;8.36;;;2.49;;
15516;SDS011;7860;52.030;5.572;2023-07-13T00:39:56;9.07;;;2.52;;
15516;SDS011;7860;52.030;5.572;2023-07-13T00:40:57;7.53;;;2.19;;
15516;SDS011;7860;52.030;5.572;2023-07-13T00:41:57;8.16;;;2.27;;
15516;SDS011;7860;52.030;5.572;2023-07-13T00:42:58;7.12;;;2.10;;
15516;SDS011;7860;52.030;5.572;2023-07-13T00:43:57;9.45;;;2.59;;
15516;SDS011;7860;52.030;5.572;2023-07-13T00:45:01;8.44;;;2.46;;
15516;SDS011;7860;52.030;5.572;2023-07-13T00:46:15;8.40;;;2.46;;
15516;SDS011;7860;52.030;5.572;2023-07-13T00:46:57;8.41;;;2.26;;
15516;SDS011;7860;52.030;5.572;2023-07-13T00:47:57;7.00;;;2.23;;
15516;SDS011;7860;52.030;5.572;2023-07-13T00:48:58;7.00;;;2.37;;
15516;SDS011;7860;52.030;5.572;2023-07-13T00:49:58;7.77;;;2.14;;
15516;SDS011;7860;52.030;5.572;2023-07-13T00:50:58;8.99;;;2.39;;
15516;SDS011;7860;52.030;5.572;2023-07-13T00:51:58;9.95;;;2.14;;
15516;SDS011;7860;52.030;5.572;2023-07-13T00:52:58;7.73;;;2.43;;
15516;SDS011;7860;52.030;5.572;2023-07-13T00:53:59;7.46;;;2.14;;
15516;SDS011;7860;52.030;5.572;2023-07-13T00:54:58;8.55;;;2.27;;
15516;SDS011;7860;52.030;5.572;2023-07-13T00:55:58;7.62;;;2.49;;
15516;SDS011;7860;52.030;5.572;2023-07-13T00:57:00;8.52;;;2.43;;
15516;SDS011;7860;52.030;5.572;2023-07-13T00:57:58;10.18;;;2.63;;
15516;SDS011;7860;52.030;5.572;2023-07-13T00:58:58;10.57;;;2.41;;
15516;SDS011;7860;52.030;5.572;2023-07-13T00:59:59;8.85;;;2.22;;
15516;SDS011;7860;52.030;5.572;2023-07-13T01:00:58;6.40;;;2.07;;
15516;SDS011;7860;52.030;5.572;2023-07-13T01:01:58;7.35;;;2.61;;
15516;SDS011;7860;52.030;5.572;2023-07-13T01:02:58;7.91;;;2.39;;
15516;SDS011;7860;52.030;5.572;2023-07-13T01:03:58;6.25;;;2.18;;
15516;SDS011;7860;52.030;5.572;2023-07-13T01:04:59;7.47;;;2.33;;
15516;SDS011;7860;52.030;5.572;2023-07-13T01:05:59;9.31;;;2.54;;
15516;SDS011;7860;52.030;5.572;2023-07-13T01:06:59;7.99;;;2.34;;
15516;SDS011;7860;52.030;5.572;2023-07-13T01:07:59;6.32;;;2.18;;
15516;SDS011;7860;52.030;5.572;2023-07-13T01:08:59;9.11;;;2.92;;
15516;SDS011;7860;52.030;5.572;2023-07-13T01:09:59;7.25;;;2.37;;
15516;SDS011;7860;52.030;5.572;2023-07-13T01:10:59;7.78;;;2.39;;
15516;SDS011;7860;52.030;5.572;2023-07-13T01:12:00;7.53;;;2.40;;
15516;SDS011;7860;52.030;5.572;2023-07-13T01:12:59;8.39;;;2.30;;
15516;SDS011;7860;52.030;5.572;2023-07-13T01:13:59;8.59;;;2.74;;
15516;SDS011;7860;52.030;5.572;2023-07-13T01:15:00;9.34;;;2.96;;
15516;SDS011;7860;52.030;5.572;2023-07-13T01:16:01;8.25;;;2.39;;
15516;SDS011;7860;52.030;5.572;2023-07-13T01:16:59;10.80;;;2.71;;
15516;SDS011;7860;52.030;5.572;2023-07-13T01:17:59;5.54;;;2.21;;
15516;SDS011;7860;52.030;5.572;2023-07-13T01:19:00;6.80;;;2.36;;
15516;SDS011;7860;52.030;5.572;2023-07-13T01:19:59;7.34;;;2.06;;
15516;SDS011;7860;52.030;5.572;2023-07-13T01:21:00;8.80;;;2.40;;
15516;SDS011;7860;52.030;5.572;2023-07-13T01:22:00;10.25;;;2.30;;
15516;SDS011;7860;52.030;5.572;2023-07-13T01:23:00;7.09;;;2.32;;
15516;SDS011;7860;52.030;5.572;2023-07-13T01:24:00;8.82;;;2.54;;
15516;SDS011;7860;52.030;5.572;2023-07-13T01:25:00;7.66;;;2.56;;
15516;SDS011;7860;52.030;5.572;2023-07-13T01:26:00;6.79;;;2.58;;
15516;SDS011;7860;52.030;5.572;2023-07-13T01:27:00;7.24;;;2.47;;
15516;SDS011;7860;52.030;5.572;2023-07-13T01:28:00;7.05;;;2.32;;
15516;SDS011;7860;52.030;5.572;2023-07-13T01:29:00;7.11;;;2.31;;
15516;SDS011;7860;52.030;5.572;2023-07-13T01:30:00;9.09;;;2.70;;
15516;SDS011;7860;52.030;5.572;2023-07-13T01:31:00;9.05;;;2.57;;
15516;SDS011;7860;52.030;5.572;2023-07-13T01:32:00;7.46;;;2.33;;
15516;SDS011;7860;52.030;5.572;2023-07-13T01:33:00;9.49;;;2.55;;
15516;SDS011;7860;52.030;5.572;2023-07-13T01:34:00;7.78;;;2.38;;
15516;SDS011;7860;52.030;5.572;2023-07-13T01:35:00;6.77;;;2.29;;
15516;SDS011;7860;52.030;5.572;2023-07-13T01:36:00;7.29;;;2.53;;
15516;SDS011;7860;52.030;5.572;2023-07-13T01:37:02;7.42;;;2.75;;
15516;SDS011;7860;52.030;5.572;2023-07-13T01:38:04;10.28;;;2.66;;
15516;SDS011;7860;52.030;5.572;2023-07-13T01:39:02;8.86;;;2.40;;
15516;SDS011;7860;52.030;5.572;2023-07-13T01:40:03;8.46;;;2.36;;
15516;SDS011;7860;52.030;5.572;2023-07-13T01:41:02;7.72;;;2.13;;
15516;SDS011;7860;52.030;5.572;2023-07-13T01:42:02;6.12;;;2.33;;
15516;SDS011;7860;52.030;5.572;2023-07-13T01:43:02;7.69;;;2.54;;
15516;SDS011;7860;52.030;5.572;2023-07-13T01:44:02;7.76;;;2.26;;
15516;SDS011;7860;52.030;5.572;2023-07-13T01:45:02;7.15;;;2.44;;
15516;SDS011;7860;52.030;5.572;2023-07-13T01:46:02;7.24;;;2.20;;
15516;SDS011;7860;52.030;5.572;2023-07-13T01:47:02;8.47;;;2.44;;
15516;SDS011;7860;52.030;5.572;2023-07-13T01:48:03;9.11;;;2.47;;
15516;SDS011;7860;52.030;5.572;2023-07-13T01:49:02;9.21;;;2.31;;
15516;SDS011;7860;52.030;5.572;2023-07-13T01:50:02;7.66;;;2.33;;
15516;SDS011;7860;52.030;5.572;2023-07-13T01:51:02;7.53;;;2.21;;
15516;SDS011;7860;52.030;5.572;2023-07-13T01:52:03;7.17;;;2.17;;
15516;SDS011;7860;52.030;5.572;2023-07-13T01:53:03;8.33;;;2.59;;
15516;SDS011;7860;52.030;5.572;2023-07-13T01:54:02;8.62;;;2.32;;
15516;SDS011;7860;52.030;5.572;2023-07-13T01:55:04;9.71;;;2.46;;
15516;SDS011;7860;52.030;5.572;2023-07-13T01:56:04;9.88;;;2.44;;
15516;SDS011;7860;52.030;5.572;2023-07-13T01:57:04;6.64;;;2.01;;
15516;SDS011;7860;52.030;5.572;2023-07-13T01:58:04;6.30;;;2.43;;
15516;SDS011;7860;52.030;5.572;2023-07-13T01:59:04;7.51;;;2.19;;
15516;SDS011;7860;52.030;5.572;2023-07-13T02:00:04;9.52;;;2.51;;
15516;SDS011;7860;52.030;5.572;2023-07-13T02:01:04;7.44;;;2.11;;
15516;SDS011;7860;52.030;5.572;2023-07-13T02:02:04;7.27;;;2.26;;
15516;SDS011;7860;52.030;5.572;2023-07-13T02:03:04;10.90;;;2.47;;
15516;SDS011;7860;52.030;5.572;2023-07-13T02:04:04;8.12;;;2.43;;
15516;SDS011;7860;52.030;5.572;2023-07-13T02:05:04;7.76;;;2.21;;
15516;SDS011;7860;52.030;5.572;2023-07-13T02:06:04;7.68;;;2.34;;
15516;SDS011;7860;52.030;5.572;2023-07-13T02:07:04;9.51;;;2.47;;
15516;SDS011;7860;52.030;5.572;2023-07-13T02:08:04;8.34;;;2.43;;
15516;SDS011;7860;52.030;5.572;2023-07-13T02:09:04;6.76;;;2.11;;
15516;SDS011;7860;52.030;5.572;2023-07-13T02:10:05;8.96;;;2.40;;
15516;SDS011;7860;52.030;5.572;2023-07-13T02:11:04;6.92;;;2.18;;
15516;SDS011;7860;52.030;5.572;2023-07-13T02:12:05;8.23;;;2.40;;
15516;SDS011;7860;52.030;5.572;2023-07-13T02:13:05;6.89;;;2.36;;
15516;SDS011;7860;52.030;5.572;2023-07-13T02:14:05;8.21;;;2.28;;
15516;SDS011;7860;52.030;5.572;2023-07-13T02:15:05;9.55;;;2.57;;
15516;SDS011;7860;52.030;5.572;2023-07-13T02:16:05;8.08;;;2.23;;
15516;SDS011;7860;52.030;5.572;2023-07-13T02:17:05;8.78;;;2.14;;
15516;SDS011;7860;52.030;5.572;2023-07-13T02:18:05;7.12;;;2.53;;
15516;SDS011;7860;52.030;5.572;2023-07-13T02:19:05;6.78;;;2.22;;
15516;SDS011;7860;52.030;5.572;2023-07-13T02:20:05;8.71;;;2.56;;
15516;SDS011;7860;52.030;5.572;2023-07-13T02:21:05;9.73;;;2.16;;
15516;SDS011;7860;52.030;5.572;2023-07-13T02:22:05;7.66;;;2.38;;
15516;SDS011;7860;52.030;5.572;2023-07-13T02:23:05;9.04;;;2.20;;
15516;SDS011;7860;52.030;5.572;2023-07-13T02:24:05;8.07;;;2.26;;
15516;SDS011;7860;52.030;5.572;2023-07-13T02:25:05;9.04;;;2.50;;
15516;SDS011;7860;52.030;5.572;2023-07-13T02:26:05;7.90;;;2.36;;
15516;SDS011;7860;52.030;5.572;2023-07-13T02:27:06;7.53;;;2.36;;
15516;SDS011;7860;52.030;5.572;2023-07-13T02:28:05;8.27;;;2.40;;
15516;SDS011;7860;52.030;5.572;2023-07-13T02:29:05;9.04;;;2.66;;
15516;SDS011;7860;52.030;5.572;2023-07-13T02:30:06;10.63;;;2.52;;
15516;SDS011;7860;52.030;5.572;2023-07-13T02:31:06;10.28;;;2.71;;
15516;SDS011;7860;52.030;5.572;2023-07-13T02:32:06;9.33;;;2.42;;
15516;SDS011;7860;52.030;5.572;2023-07-13T02:33:06;6.96;;;2.34;;
15516;SDS011;7860;52.030;5.572;2023-07-13T02:34:06;9.27;;;2.36;;
15516;SDS011;7860;52.030;5.572;2023-07-13T02:35:06;8.28;;;2.43;;
15516;SDS011;7860;52.030;5.572;2023-07-13T02:36:06;8.80;;;2.76;;
15516;SDS011;7860;52.030;5.572;2023-07-13T02:37:06;8.36;;;2.50;;
15516;SDS011;7860;52.030;5.572;2023-07-13T02:38:06;7.26;;;2.50;;
15516;SDS011;7860;52.030;5.572;2023-07-13T02:39:06;7.86;;;2.52;;
15516;SDS011;7860;52.030;5.572;2023-07-13T02:40:07;7.69;;;2.39;;
15516;SDS011;7860;52.030;5.572;2023-07-13T02:41:07;9.17;;;2.65;;
15516;SDS011;7860;52.030;5.572;2023-07-13T02:42:06;10.31;;;2.67;;
15516;SDS011;7860;52.030;5.572;2023-07-13T02:43:06;10.80;;;2.62;;
15516;SDS011;7860;52.030;5.572;2023-07-13T02:44:07;11.66;;;2.65;;
15516;SDS011;7860;52.030;5.572;2023-07-13T02:45:07;9.06;;;2.49;;
15516;SDS011;7860;52.030;5.572;2023-07-13T02:46:07;9.26;;;2.42;;
15516;SDS011;7860;52.030;5.572;2023-07-13T02:47:07;10.66;;;2.54;;
15516;SDS011;7860;52.030;5.572;2023-07-13T02:48:07;10.19;;;2.42;;
15516;SDS011;7860;52.030;5.572;2023-07-13T02:49:07;8.94;;;2.40;;
15516;SDS011;7860;52.030;5.572;2023-07-13T02:50:07;10.48;;;2.76;;
15516;SDS011;7860;52.030;5.572;2023-07-13T02:51:07;9.44;;;2.66;;
15516;SDS011;7860;52.030;5.572;2023-07-13T02:52:07;10.19;;;2.75;;
15516;SDS011;7860;52.030;5.572;2023-07-13T02:53:07;7.66;;;2.59;;
15516;SDS011;7860;52.030;5.572;2023-07-13T02:54:08;8.82;;;2.63;;
15516;SDS011;7860;52.030;5.572;2023-07-13T02:55:07;7.00;;;2.79;;
15516;SDS011;7860;52.030;5.572;2023-07-13T02:56:07;12.39;;;3.19;;
15516;SDS011;7860;52.030;5.572;2023-07-13T02:57:07;11.32;;;2.83;;
15516;SDS011;7860;52.030;5.572;2023-07-13T02:58:07;9.87;;;2.80;;
15516;SDS011;7860;52.030;5.572;2023-07-13T02:59:07;10.71;;;2.91;;
15516;SDS011;7860;52.030;5.572;2023-07-13T03:00:08;7.63;;;2.61;;
15516;SDS011;7860;52.030;5.572;2023-07-13T03:01:08;10.80;;;3.04;;
15516;SDS011;7860;52.030;5.572;2023-07-13T03:02:08;10.88;;;2.99;;
15516;SDS011;7860;52.030;5.572;2023-07-13T03:03:08;9.42;;;2.89;;
15516;SDS011;7860;52.030;5.572;2023-07-13T03:04:08;8.00;;;2.92;;
15516;SDS011;7860;52.030;5.572;2023-07-13T03:05:08;9.96;;;2.86;;
15516;SDS011;7860;52.030;5.572;2023-07-13T03:06:08;9.52;;;2.73;;
15516;SDS011;7860;52.030;5.572;2023-07-13T03:07:08;8.86;;;2.52;;
15516;SDS011;7860;52.030;5.572;2023-07-13T03:08:08;10.42;;;3.05;;
15516;SDS011;7860;52.030;5.572;2023-07-13T03:09:08;11.35;;;2.97;;
15516;SDS011;7860;52.030;5.572;2023-07-13T03:10:08;10.72;;;3.17;;
15516;SDS011;7860;52.030;5.572;2023-07-13T03:11:10;11.29;;;3.15;;
15516;SDS011;7860;52.030;5.572;2023-07-13T03:12:09;11.02;;;2.89;;
15516;SDS011;7860;52.030;5.572;2023-07-13T03:13:09;10.05;;;2.80;;
15516;SDS011;7860;52.030;5.572;2023-07-13T03:14:09;9.19;;;2.85;;
15516;SDS011;7860;52.030;5.572;2023-07-13T03:15:09;11.66;;;2.81;;
15516;SDS011;7860;52.030;5.572;2023-07-13T03:16:10;11.50;;;2.96;;
15516;SDS011;7860;52.030;5.572;2023-07-13T03:17:09;10.77;;;2.93;;
15516;SDS011;7860;52.030;5.572;2023-07-13T03:18:10;10.11;;;2.90;;
15516;SDS011;7860;52.030;5.572;2023-07-13T03:19:10;11.48;;;3.34;;
15516;SDS011;7860;52.030;5.572;2023-07-13T03:20:10;10.24;;;3.30;;
15516;SDS011;7860;52.030;5.572;2023-07-13T03:21:10;11.64;;;3.06;;
15516;SDS011;7860;52.030;5.572;2023-07-13T03:22:10;11.51;;;3.14;;
15516;SDS011;7860;52.030;5.572;2023-07-13T03:23:10;11.06;;;3.13;;
15516;SDS011;7860;52.030;5.572;2023-07-13T03:24:10;12.49;;;3.24;;
15516;SDS011;7860;52.030;5.572;2023-07-13T03:25:10;10.16;;;2.88;;
15516;SDS011;7860;52.030;5.572;2023-07-13T03:26:11;13.29;;;4.06;;
15516;SDS011;7860;52.030;5.572;2023-07-13T03:27:10;11.15;;;2.80;;
15516;SDS011;7860;52.030;5.572;2023-07-13T03:28:10;10.65;;;3.31;;
15516;SDS011;7860;52.030;5.572;2023-07-13T03:29:10;11.13;;;3.23;;
15516;SDS011;7860;52.030;5.572;2023-07-13T03:30:11;9.65;;;3.10;;
15516;SDS011;7860;52.030;5.572;2023-07-13T03:31:12;10.84;;;3.46;;
15516;SDS011;7860;52.030;5.572;2023-07-13T03:32:10;11.96;;;3.46;;
15516;SDS011;7860;52.030;5.572;2023-07-13T03:33:10;11.34;;;3.15;;
15516;SDS011;7860;52.030;5.572;2023-07-13T03:34:10;9.61;;;3.07;;
15516;SDS011;7860;52.030;5.572;2023-07-13T03:35:10;11.63;;;3.39;;
15516;SDS011;7860;52.030;5.572;2023-07-13T03:36:12;9.86;;;2.79;;
15516;SDS011;7860;52.030;5.572;2023-07-13T03:37:11;11.77;;;3.53;;
15516;SDS011;7860;52.030;5.572;2023-07-13T03:38:11;11.18;;;3.26;;
15516;SDS011;7860;52.030;5.572;2023-07-13T03:39:11;9.83;;;3.04;;
15516;SDS011;7860;52.030;5.572;2023-07-13T03:40:12;12.00;;;3.13;;
15516;SDS011;7860;52.030;5.572;2023-07-13T03:41:12;11.49;;;3.54;;
15516;SDS011;7860;52.030;5.572;2023-07-13T03:42:12;11.49;;;3.24;;
15516;SDS011;7860;52.030;5.572;2023-07-13T03:43:12;13.53;;;3.08;;
15516;SDS011;7860;52.030;5.572;2023-07-13T03:44:12;11.31;;;2.90;;
15516;SDS011;7860;52.030;5.572;2023-07-13T03:45:12;10.48;;;3.16;;
15516;SDS011;7860;52.030;5.572;2023-07-13T03:46:12;11.58;;;3.11;;
15516;SDS011;7860;52.030;5.572;2023-07-13T03:47:12;14.08;;;3.83;;
15516;SDS011;7860;52.030;5.572;2023-07-13T03:48:12;9.53;;;2.92;;
15516;SDS011;7860;52.030;5.572;2023-07-13T03:49:12;12.51;;;3.42;;
15516;SDS011;7860;52.030;5.572;2023-07-13T03:50:13;10.89;;;3.27;;
15516;SDS011;7860;52.030;5.572;2023-07-13T03:51:14;10.59;;;3.23;;
15516;SDS011;7860;52.030;5.572;2023-07-13T03:52:13;11.22;;;3.00;;
15516;SDS011;7860;52.030;5.572;2023-07-13T03:53:13;12.01;;;3.57;;
15516;SDS011;7860;52.030;5.572;2023-07-13T03:54:13;13.50;;;3.52;;
15516;SDS011;7860;52.030;5.572;2023-07-13T03:55:13;11.09;;;3.27;;
15516;SDS011;7860;52.030;5.572;2023-07-13T03:56:14;13.59;;;3.37;;
15516;SDS011;7860;52.030;5.572;2023-07-13T03:57:14;10.34;;;3.10;;
15516;SDS011;7860;52.030;5.572;2023-07-13T03:58:30;11.45;;;3.32;;
15516;SDS011;7860;52.030;5.572;2023-07-13T03:59:14;11.70;;;3.31;;
15516;SDS011;7860;52.030;5.572;2023-07-13T04:00:14;10.60;;;3.50;;
15516;SDS011;7860;52.030;5.572;2023-07-13T04:01:14;10.34;;;3.04;;
15516;SDS011;7860;52.030;5.572;2023-07-13T04:02:14;11.75;;;3.31;;
15516;SDS011;7860;52.030;5.572;2023-07-13T04:03:14;14.22;;;3.61;;
15516;SDS011;7860;52.030;5.572;2023-07-13T04:04:14;10.59;;;3.55;;
15516;SDS011;7860;52.030;5.572;2023-07-13T04:05:14;11.68;;;3.37;;
15516;SDS011;7860;52.030;5.572;2023-07-13T04:06:15;11.42;;;3.43;;
15516;SDS011;7860;52.030;5.572;2023-07-13T04:07:14;13.61;;;3.40;;
15516;SDS011;7860;52.030;5.572;2023-07-13T04:08:14;11.89;;;3.65;;
15516;SDS011;7860;52.030;5.572;2023-07-13T04:09:14;10.23;;;3.53;;
15516;SDS011;7860;52.030;5.572;2023-07-13T04:10:14;11.22;;;3.36;;
15516;SDS011;7860;52.030;5.572;2023-07-13T04:11:14;11.76;;;3.29;;
15516;SDS011;7860;52.030;5.572;2023-07-13T04:12:14;11.28;;;3.50;;
15516;SDS011;7860;52.030;5.572;2023-07-13T04:13:14;11.37;;;3.66;;
15516;SDS011;7860;52.030;5.572;2023-07-13T04:14:14;14.12;;;3.79;;
15516;SDS011;7860;52.030;5.572;2023-07-13T04:15:15;11.04;;;3.29;;
15516;SDS011;7860;52.030;5.572;2023-07-13T04:16:15;9.98;;;3.39;;
15516;SDS011;7860;52.030;5.572;2023-07-13T04:17:15;12.73;;;3.42;;
15516;SDS011;7860;52.030;5.572;2023-07-13T04:18:15;11.65;;;3.69;;
15516;SDS011;7860;52.030;5.572;2023-07-13T04:19:15;11.20;;;3.66;;
15516;SDS011;7860;52.030;5.572;2023-07-13T04:20:15;14.29;;;3.85;;
15516;SDS011;7860;52.030;5.572;2023-07-13T04:21:15;13.16;;;3.61;;
15516;SDS011;7860;52.030;5.572;2023-07-13T04:22:15;13.58;;;3.59;;
15516;SDS011;7860;52.030;5.572;2023-07-13T04:23:15;10.15;;;3.32;;
15516;SDS011;7860;52.030;5.572;2023-07-13T04:24:15;14.33;;;3.63;;
15516;SDS011;7860;52.030;5.572;2023-07-13T04:25:15;13.96;;;3.55;;
15516;SDS011;7860;52.030;5.572;2023-07-13T04:26:15;12.99;;;3.77;;
15516;SDS011;7860;52.030;5.572;2023-07-13T04:27:15;13.18;;;3.43;;
15516;SDS011;7860;52.030;5.572;2023-07-13T04:28:15;11.41;;;3.53;;
15516;SDS011;7860;52.030;5.572;2023-07-13T04:29:15;15.18;;;3.75;;
15516;SDS011;7860;52.030;5.572;2023-07-13T04:30:15;12.76;;;3.90;;
15516;SDS011;7860;52.030;5.572;2023-07-13T04:31:15;11.50;;;3.65;;
15516;SDS011;7860;52.030;5.572;2023-07-13T04:32:15;13.23;;;3.71;;
15516;SDS011;7860;52.030;5.572;2023-07-13T04:33:16;12.06;;;3.98;;
15516;SDS011;7860;52.030;5.572;2023-07-13T04:34:16;13.39;;;4.21;;
15516;SDS011;7860;52.030;5.572;2023-07-13T04:35:16;12.98;;;3.86;;
15516;SDS011;7860;52.030;5.572;2023-07-13T04:36:16;15.72;;;3.89;;
15516;SDS011;7860;52.030;5.572;2023-07-13T04:37:16;12.16;;;3.78;;
15516;SDS011;7860;52.030;5.572;2023-07-13T04:38:16;11.86;;;3.74;;
15516;SDS011;7860;52.030;5.572;2023-07-13T04:39:16;15.75;;;4.33;;
15516;SDS011;7860;52.030;5.572;2023-07-13T04:40:16;12.80;;;4.07;;
15516;SDS011;7860;52.030;5.572;2023-07-13T04:41:16;14.79;;;4.22;;
15516;SDS011;7860;52.030;5.572;2023-07-13T04:42:16;11.42;;;3.48;;
15516;SDS011;7860;52.030;5.572;2023-07-13T04:43:16;13.25;;;3.89;;
15516;SDS011;7860;52.030;5.572;2023-07-13T04:44:16;13.54;;;4.16;;
15516;SDS011;7860;52.030;5.572;2023-07-13T04:45:16;12.13;;;4.10;;
15516;SDS011;7860;52.030;5.572;2023-07-13T04:46:16;14.37;;;4.11;;
15516;SDS011;7860;52.030;5.572;2023-07-13T04:47:16;14.18;;;4.03;;
15516;SDS011;7860;52.030;5.572;2023-07-13T04:48:16;12.89;;;3.99;;
15516;SDS011;7860;52.030;5.572;2023-07-13T04:49:16;13.28;;;4.58;;
15516;SDS011;7860;52.030;5.572;2023-07-13T04:50:17;12.24;;;4.18;;
15516;SDS011;7860;52.030;5.572;2023-07-13T04:51:17;12.64;;;4.04;;
15516;SDS011;7860;52.030;5.572;2023-07-13T04:52:17;14.06;;;4.38;;
15516;SDS011;7860;52.030;5.572;2023-07-13T04:53:17;12.10;;;3.53;;
15516;SDS011;7860;52.030;5.572;2023-07-13T04:54:17;14.28;;;3.95;;
15516;SDS011;7860;52.030;5.572;2023-07-13T04:55:17;17.64;;;4.42;;
15516;SDS011;7860;52.030;5.572;2023-07-13T04:56:17;14.87;;;4.37;;
15516;SDS011;7860;52.030;5.572;2023-07-13T04:57:17;14.23;;;4.12;;
15516;SDS011;7860;52.030;5.572;2023-07-13T04:58:17;13.05;;;4.52;;
15516;SDS011;7860;52.030;5.572;2023-07-13T04:59:17;12.78;;;4.17;;
15516;SDS011;7860;52.030;5.572;2023-07-13T05:00:17;14.44;;;4.41;;
15516;SDS011;7860;52.030;5.572;2023-07-13T05:01:17;16.37;;;4.66;;
15516;SDS011;7860;52.030;5.572;2023-07-13T05:02:17;15.77;;;4.55;;
15516;SDS011;7860;52.030;5.572;2023-07-13T05:03:17;13.44;;;4.40;;
15516;SDS011;7860;52.030;5.572;2023-07-13T05:04:17;13.67;;;4.45;;
15516;SDS011;7860;52.030;5.572;2023-07-13T05:05:17;13.72;;;4.47;;
15516;SDS011;7860;52.030;5.572;2023-07-13T05:06:18;17.14;;;4.69;;
15516;SDS011;7860;52.030;5.572;2023-07-13T05:07:18;15.11;;;4.63;;
15516;SDS011;7860;52.030;5.572;2023-07-13T05:08:18;15.66;;;4.66;;
15516;SDS011;7860;52.030;5.572;2023-07-13T05:09:18;14.41;;;4.20;;
15516;SDS011;7860;52.030;5.572;2023-07-13T05:10:18;15.74;;;4.65;;
15516;SDS011;7860;52.030;5.572;2023-07-13T05:11:18;14.57;;;4.61;;
15516;SDS011;7860;52.030;5.572;2023-07-13T05:12:18;16.45;;;4.92;;
15516;SDS011;7860;52.030;5.572;2023-07-13T05:13:18;16.16;;;4.58;;
15516;SDS011;7860;52.030;5.572;2023-07-13T05:14:18;19.99;;;4.75;;
15516;SDS011;7860;52.030;5.572;2023-07-13T05:15:20;15.57;;;4.49;;
15516;SDS011;7860;52.030;5.572;2023-07-13T05:16:18;14.30;;;4.46;;
15516;SDS011;7860;52.030;5.572;2023-07-13T05:17:18;16.15;;;4.81;;
15516;SDS011;7860;52.030;5.572;2023-07-13T05:18:18;13.37;;;4.71;;
15516;SDS011;7860;52.030;5.572;2023-07-13T05:19:18;12.97;;;4.56;;
15516;SDS011;7860;52.030;5.572;2023-07-13T05:20:19;15.69;;;4.60;;
15516;SDS011;7860;52.030;5.572;2023-07-13T05:21:19;19.72;;;4.90;;
15516;SDS011;7860;52.030;5.572;2023-07-13T05:22:19;13.80;;;4.84;;
15516;SDS011;7860;52.030;5.572;2023-07-13T05:23:19;15.12;;;4.96;;
15516;SDS011;7860;52.030;5.572;2023-07-13T05:24:19;18.61;;;4.97;;
15516;SDS011;7860;52.030;5.572;2023-07-13T05:25:19;13.04;;;4.75;;
15516;SDS011;7860;52.030;5.572;2023-07-13T05:26:19;13.31;;;4.80;;
15516;SDS011;7860;52.030;5.572;2023-07-13T05:27:19;16.82;;;5.06;;
15516;SDS011;7860;52.030;5.572;2023-07-13T05:28:19;13.89;;;5.17;;
15516;SDS011;7860;52.030;5.572;2023-07-13T05:29:19;13.22;;;4.96;;
15516;SDS011;7860;52.030;5.572;2023-07-13T05:30:19;13.95;;;5.07;;
15516;SDS011;7860;52.030;5.572;2023-07-13T05:31:19;17.98;;;5.35;;
15516;SDS011;7860;52.030;5.572;2023-07-13T05:32:19;15.62;;;5.14;;
15516;SDS011;7860;52.030;5.572;2023-07-13T05:33:19;17.68;;;5.13;;
15516;SDS011;7860;52.030;5.572;2023-07-13T05:34:19;13.63;;;4.97;;
15516;SDS011;7860;52.030;5.572;2023-07-13T05:35:19;15.18;;;5.23;;
15516;SDS011;7860;52.030;5.572;2023-07-13T05:36:20;13.66;;;4.78;;
15516;SDS011;7860;52.030;5.572;2023-07-13T05:37:20;15.86;;;5.32;;
15516;SDS011;7860;52.030;5.572;2023-07-13T05:38:20;17.81;;;5.57;;
15516;SDS011;7860;52.030;5.572;2023-07-13T05:39:20;15.70;;;5.22;;
15516;SDS011;7860;52.030;5.572;2023-07-13T05:40:20;15.24;;;5.28;;
15516;SDS011;7860;52.030;5.572;2023-07-13T05:41:20;17.16;;;5.26;;
15516;SDS011;7860;52.030;5.572;2023-07-13T05:42:20;18.33;;;6.07;;
15516;SDS011;7860;52.030;5.572;2023-07-13T05:43:20;13.06;;;5.51;;
15516;SDS011;7860;52.030;5.572;2023-07-13T05:44:20;14.96;;;5.91;;
15516;SDS011;7860;52.030;5.572;2023-07-13T05:45:20;16.89;;;5.72;;
15516;SDS011;7860;52.030;5.572;2023-07-13T05:46:20;15.35;;;5.33;;
15516;SDS011;7860;52.030;5.572;2023-07-13T05:47:20;18.12;;;6.33;;
15516;SDS011;7860;52.030;5.572;2023-07-13T05:48:20;17.39;;;5.87;;
15516;SDS011;7860;52.030;5.572;2023-07-13T05:49:21;16.35;;;5.93;;
15516;SDS011;7860;52.030;5.572;2023-07-13T05:50:21;16.12;;;6.55;;
15516;SDS011;7860;52.030;5.572;2023-07-13T05:51:21;17.73;;;6.72;;
15516;SDS011;7860;52.030;5.572;2023-07-13T05:52:21;18.71;;;7.09;;
15516;SDS011;7860;52.030;5.572;2023-07-13T05:53:21;18.39;;;6.09;;
15516;SDS011;7860;52.030;5.572;2023-07-13T05:54:21;18.04;;;6.22;;
15516;SDS011;7860;52.030;5.572;2023-07-13T05:55:21;18.13;;;6.08;;
15516;SDS011;7860;52.030;5.572;2023-07-13T05:56:21;19.83;;;6.85;;
15516;SDS011;7860;52.030;5.572;2023-07-13T05:57:21;18.84;;;6.56;;
15516;SDS011;7860;52.030;5.572;2023-07-13T05:58:21;17.14;;;6.21;;
15516;SDS011;7860;52.030;5.572;2023-07-13T05:59:21;19.13;;;7.09;;
15516;SDS011;7860;52.030;5.572;2023-07-13T06:00:21;18.91;;;6.48;;
15516;SDS011;7860;52.030;5.572;2023-07-13T06:01:21;19.41;;;6.92;;
15516;SDS011;7860;52.030;5.572;2023-07-13T06:02:21;17.49;;;6.69;;
15516;SDS011;7860;52.030;5.572;2023-07-13T06:03:21;17.16;;;6.35;;
15516;SDS011;7860;52.030;5.572;2023-07-13T06:04:22;20.40;;;6.83;;
15516;SDS011;7860;52.030;5.572;2023-07-13T06:05:22;21.29;;;7.36;;